<?xml version="1.0" encoding="UTF-8" standalone="no" ?>
<gpx xmlns="http://www.topografix.com/GPX/1/1" xmlns:xsi="http://www.w3.org/2001/XMLSchema-instance" xsi:schemaLocation="http://www.topografix.com/GPX/1/1 http://www.topografix.com/GPX/1/1/gpx.xsd" version="1.1" creator="VisuGPX - https://www.visugpx.com">
  <metadata>
    <name>83 - M - LES ARCS</name>
    <desc><![CDATA[Les ARCS, La forêt des Apiès]]></desc>
  </metadata>
  <wpt lat="43.4345" lon="6.51058">
    <ele>88</ele>
    <name><![CDATA[Point de passage 1]]></name>
    <type><![CDATA[GENERIC]]></type>
  </wpt>
  <wpt lat="43.43482" lon="6.51076">
    <ele>86</ele>
    <name><![CDATA[Point de passage 2]]></name>
    <type><![CDATA[GENERIC]]></type>
  </wpt>
  <trk>
    <name><![CDATA[Les Arcs Les Apies]]></name>
    <trkseg>
      <trkpt lat="43.4345" lon="6.51058">
        <ele>88</ele>
        <time>2025-10-08T12:05:22.000Z</time>
      </trkpt>
      <trkpt lat="43.43446" lon="6.51056">
        <ele>87</ele>
        <time>2025-10-08T12:05:25.000Z</time>
      </trkpt>
      <trkpt lat="43.43434" lon="6.51053">
        <ele>90</ele>
        <time>2025-10-08T12:06:01.000Z</time>
      </trkpt>
      <trkpt lat="43.43418" lon="6.51047">
        <ele>89</ele>
        <time>2025-10-08T12:06:13.000Z</time>
      </trkpt>
      <trkpt lat="43.43402" lon="6.5104">
        <ele>89</ele>
        <time>2025-10-08T12:06:25.000Z</time>
      </trkpt>
      <trkpt lat="43.4339" lon="6.51032">
        <ele>89</ele>
        <time>2025-10-08T12:06:40.000Z</time>
      </trkpt>
      <trkpt lat="43.43377" lon="6.5103">
        <ele>89</ele>
        <time>2025-10-08T12:06:56.000Z</time>
      </trkpt>
      <trkpt lat="43.43362" lon="6.51024">
        <ele>89</ele>
        <time>2025-10-08T12:07:08.000Z</time>
      </trkpt>
      <trkpt lat="43.43348" lon="6.51021">
        <ele>88</ele>
        <time>2025-10-08T12:07:20.000Z</time>
      </trkpt>
      <trkpt lat="43.43333" lon="6.51021">
        <ele>88</ele>
        <time>2025-10-08T12:07:32.000Z</time>
      </trkpt>
      <trkpt lat="43.43318" lon="6.51025">
        <ele>88</ele>
        <time>2025-10-08T12:07:44.000Z</time>
      </trkpt>
      <trkpt lat="43.43304" lon="6.51032">
        <ele>88</ele>
        <time>2025-10-08T12:07:56.000Z</time>
      </trkpt>
      <trkpt lat="43.43288" lon="6.51039">
        <ele>87</ele>
        <time>2025-10-08T12:08:08.000Z</time>
      </trkpt>
      <trkpt lat="43.43275" lon="6.51044">
        <ele>86</ele>
        <time>2025-10-08T12:08:17.000Z</time>
      </trkpt>
      <trkpt lat="43.43261" lon="6.51048">
        <ele>84</ele>
        <time>2025-10-08T12:08:32.000Z</time>
      </trkpt>
      <trkpt lat="43.43248" lon="6.51046">
        <ele>83</ele>
        <time>2025-10-08T12:08:44.000Z</time>
      </trkpt>
      <trkpt lat="43.43241" lon="6.51032">
        <ele>83</ele>
        <time>2025-10-08T12:09:23.000Z</time>
      </trkpt>
      <trkpt lat="43.43237" lon="6.51014">
        <ele>82</ele>
        <time>2025-10-08T12:09:41.000Z</time>
      </trkpt>
      <trkpt lat="43.43235" lon="6.50994">
        <ele>81</ele>
        <time>2025-10-08T12:09:56.000Z</time>
      </trkpt>
      <trkpt lat="43.43233" lon="6.50974">
        <ele>79</ele>
        <time>2025-10-08T12:10:11.000Z</time>
      </trkpt>
      <trkpt lat="43.43234" lon="6.50955">
        <ele>78</ele>
        <time>2025-10-08T12:10:26.000Z</time>
      </trkpt>
      <trkpt lat="43.43234" lon="6.50936">
        <ele>77</ele>
        <time>2025-10-08T12:10:44.000Z</time>
      </trkpt>
      <trkpt lat="43.43236" lon="6.50917">
        <ele>77</ele>
        <time>2025-10-08T12:10:59.000Z</time>
      </trkpt>
      <trkpt lat="43.43232" lon="6.50899">
        <ele>77</ele>
        <time>2025-10-08T12:11:11.000Z</time>
      </trkpt>
      <trkpt lat="43.43231" lon="6.5088">
        <ele>77</ele>
        <time>2025-10-08T12:11:32.000Z</time>
      </trkpt>
      <trkpt lat="43.43234" lon="6.5086">
        <ele>77</ele>
        <time>2025-10-08T12:11:47.000Z</time>
      </trkpt>
      <trkpt lat="43.43236" lon="6.50839">
        <ele>77</ele>
        <time>2025-10-08T12:12:05.000Z</time>
      </trkpt>
      <trkpt lat="43.43236" lon="6.5082">
        <ele>77</ele>
        <time>2025-10-08T12:12:17.000Z</time>
      </trkpt>
      <trkpt lat="43.43232" lon="6.508">
        <ele>77</ele>
        <time>2025-10-08T12:12:32.000Z</time>
      </trkpt>
      <trkpt lat="43.43228" lon="6.50781">
        <ele>77</ele>
        <time>2025-10-08T12:12:44.000Z</time>
      </trkpt>
      <trkpt lat="43.43226" lon="6.50761">
        <ele>77</ele>
        <time>2025-10-08T12:12:59.000Z</time>
      </trkpt>
      <trkpt lat="43.43225" lon="6.5074">
        <ele>77</ele>
        <time>2025-10-08T12:13:14.000Z</time>
      </trkpt>
      <trkpt lat="43.43224" lon="6.50719">
        <ele>77</ele>
        <time>2025-10-08T12:13:29.000Z</time>
      </trkpt>
      <trkpt lat="43.4322" lon="6.50701">
        <ele>77</ele>
        <time>2025-10-08T12:13:41.000Z</time>
      </trkpt>
      <trkpt lat="43.43217" lon="6.50682">
        <ele>78</ele>
        <time>2025-10-08T12:13:53.000Z</time>
      </trkpt>
      <trkpt lat="43.43212" lon="6.50664">
        <ele>78</ele>
        <time>2025-10-08T12:14:14.000Z</time>
      </trkpt>
      <trkpt lat="43.43207" lon="6.50646">
        <ele>77</ele>
        <time>2025-10-08T12:14:26.000Z</time>
      </trkpt>
      <trkpt lat="43.43202" lon="6.50626">
        <ele>77</ele>
        <time>2025-10-08T12:14:38.000Z</time>
      </trkpt>
      <trkpt lat="43.43196" lon="6.50606">
        <ele>78</ele>
        <time>2025-10-08T12:14:56.000Z</time>
      </trkpt>
      <trkpt lat="43.43191" lon="6.50586">
        <ele>78</ele>
        <time>2025-10-08T12:15:08.000Z</time>
      </trkpt>
      <trkpt lat="43.43185" lon="6.50568">
        <ele>78</ele>
        <time>2025-10-08T12:15:26.000Z</time>
      </trkpt>
      <trkpt lat="43.43182" lon="6.50548">
        <ele>79</ele>
        <time>2025-10-08T12:15:44.000Z</time>
      </trkpt>
      <trkpt lat="43.43178" lon="6.50531">
        <ele>80</ele>
        <time>2025-10-08T12:16:08.000Z</time>
      </trkpt>
      <trkpt lat="43.43174" lon="6.50512">
        <ele>80</ele>
        <time>2025-10-08T12:16:38.000Z</time>
      </trkpt>
      <trkpt lat="43.43168" lon="6.50495">
        <ele>81</ele>
        <time>2025-10-08T12:16:59.000Z</time>
      </trkpt>
      <trkpt lat="43.43163" lon="6.50475">
        <ele>82</ele>
        <time>2025-10-08T12:17:17.000Z</time>
      </trkpt>
      <trkpt lat="43.43157" lon="6.50457">
        <ele>83</ele>
        <time>2025-10-08T12:17:41.000Z</time>
      </trkpt>
      <trkpt lat="43.43148" lon="6.50441">
        <ele>84</ele>
        <time>2025-10-08T12:18:05.000Z</time>
      </trkpt>
      <trkpt lat="43.43139" lon="6.50426">
        <ele>85</ele>
        <time>2025-10-08T12:18:53.000Z</time>
      </trkpt>
      <trkpt lat="43.4313" lon="6.50411">
        <ele>86</ele>
        <time>2025-10-08T12:19:08.000Z</time>
      </trkpt>
      <trkpt lat="43.43124" lon="6.50394">
        <ele>87</ele>
        <time>2025-10-08T12:19:26.000Z</time>
      </trkpt>
      <trkpt lat="43.43112" lon="6.50384">
        <ele>86</ele>
        <time>2025-10-08T12:21:29.000Z</time>
      </trkpt>
      <trkpt lat="43.43101" lon="6.50373">
        <ele>86</ele>
        <time>2025-10-08T12:21:41.000Z</time>
      </trkpt>
      <trkpt lat="43.43092" lon="6.50358">
        <ele>86</ele>
        <time>2025-10-08T12:21:53.000Z</time>
      </trkpt>
      <trkpt lat="43.43084" lon="6.50341">
        <ele>86</ele>
        <time>2025-10-08T12:22:05.000Z</time>
      </trkpt>
      <trkpt lat="43.43076" lon="6.50324">
        <ele>85</ele>
        <time>2025-10-08T12:22:20.000Z</time>
      </trkpt>
      <trkpt lat="43.43072" lon="6.50307">
        <ele>85</ele>
        <time>2025-10-08T12:23:14.000Z</time>
      </trkpt>
      <trkpt lat="43.43058" lon="6.50302">
        <ele>86</ele>
        <time>2025-10-08T12:24:11.000Z</time>
      </trkpt>
      <trkpt lat="43.43043" lon="6.50303">
        <ele>87</ele>
        <time>2025-10-08T12:24:26.000Z</time>
      </trkpt>
      <trkpt lat="43.43028" lon="6.50298">
        <ele>88</ele>
        <time>2025-10-08T12:24:41.000Z</time>
      </trkpt>
      <trkpt lat="43.43014" lon="6.50293">
        <ele>89</ele>
        <time>2025-10-08T12:24:50.000Z</time>
      </trkpt>
      <trkpt lat="43.43" lon="6.50286">
        <ele>88</ele>
        <time>2025-10-08T12:25:02.000Z</time>
      </trkpt>
      <trkpt lat="43.42986" lon="6.50281">
        <ele>88</ele>
        <time>2025-10-08T12:25:17.000Z</time>
      </trkpt>
      <trkpt lat="43.42973" lon="6.50278">
        <ele>88</ele>
        <time>2025-10-08T12:25:29.000Z</time>
      </trkpt>
      <trkpt lat="43.42958" lon="6.50274">
        <ele>87</ele>
        <time>2025-10-08T12:25:41.000Z</time>
      </trkpt>
      <trkpt lat="43.42945" lon="6.50267">
        <ele>87</ele>
        <time>2025-10-08T12:25:56.000Z</time>
      </trkpt>
      <trkpt lat="43.42932" lon="6.50261">
        <ele>87</ele>
        <time>2025-10-08T12:26:08.000Z</time>
      </trkpt>
      <trkpt lat="43.42921" lon="6.50251">
        <ele>87</ele>
        <time>2025-10-08T12:26:20.000Z</time>
      </trkpt>
      <trkpt lat="43.42908" lon="6.50241">
        <ele>86</ele>
        <time>2025-10-08T12:26:32.000Z</time>
      </trkpt>
      <trkpt lat="43.42897" lon="6.5023">
        <ele>85</ele>
        <time>2025-10-08T12:26:44.000Z</time>
      </trkpt>
      <trkpt lat="43.42884" lon="6.50219">
        <ele>83</ele>
        <time>2025-10-08T12:26:56.000Z</time>
      </trkpt>
      <trkpt lat="43.42873" lon="6.50207">
        <ele>82</ele>
        <time>2025-10-08T12:27:11.000Z</time>
      </trkpt>
      <trkpt lat="43.42864" lon="6.50192">
        <ele>82</ele>
        <time>2025-10-08T12:27:23.000Z</time>
      </trkpt>
      <trkpt lat="43.42857" lon="6.50176">
        <ele>82</ele>
        <time>2025-10-08T12:27:36.000Z</time>
      </trkpt>
      <trkpt lat="43.42851" lon="6.5016">
        <ele>82</ele>
        <time>2025-10-08T12:27:48.000Z</time>
      </trkpt>
      <trkpt lat="43.42845" lon="6.50143">
        <ele>83</ele>
        <time>2025-10-08T12:28:00.000Z</time>
      </trkpt>
      <trkpt lat="43.42839" lon="6.50124">
        <ele>83</ele>
        <time>2025-10-08T12:28:39.000Z</time>
      </trkpt>
      <trkpt lat="43.42832" lon="6.50106">
        <ele>83</ele>
        <time>2025-10-08T12:28:54.000Z</time>
      </trkpt>
      <trkpt lat="43.4283" lon="6.50088">
        <ele>84</ele>
        <time>2025-10-08T12:29:09.000Z</time>
      </trkpt>
      <trkpt lat="43.42826" lon="6.50071">
        <ele>84</ele>
        <time>2025-10-08T12:29:23.000Z</time>
      </trkpt>
      <trkpt lat="43.42823" lon="6.50052">
        <ele>84</ele>
        <time>2025-10-08T12:29:38.000Z</time>
      </trkpt>
      <trkpt lat="43.42823" lon="6.50032">
        <ele>84</ele>
        <time>2025-10-08T12:30:17.000Z</time>
      </trkpt>
      <trkpt lat="43.42823" lon="6.50012">
        <ele>84</ele>
        <time>2025-10-08T12:30:32.000Z</time>
      </trkpt>
      <trkpt lat="43.42826" lon="6.49993">
        <ele>83</ele>
        <time>2025-10-08T12:30:44.000Z</time>
      </trkpt>
      <trkpt lat="43.42829" lon="6.49973">
        <ele>82</ele>
        <time>2025-10-08T12:30:59.000Z</time>
      </trkpt>
      <trkpt lat="43.42834" lon="6.49955">
        <ele>81</ele>
        <time>2025-10-08T12:31:14.000Z</time>
      </trkpt>
      <trkpt lat="43.42835" lon="6.49936">
        <ele>80</ele>
        <time>2025-10-08T12:31:41.000Z</time>
      </trkpt>
      <trkpt lat="43.42842" lon="6.49921">
        <ele>80</ele>
        <time>2025-10-08T12:31:53.000Z</time>
      </trkpt>
      <trkpt lat="43.4285" lon="6.49905">
        <ele>81</ele>
        <time>2025-10-08T12:32:05.000Z</time>
      </trkpt>
      <trkpt lat="43.42859" lon="6.49889">
        <ele>82</ele>
        <time>2025-10-08T12:32:20.000Z</time>
      </trkpt>
      <trkpt lat="43.42874" lon="6.49883">
        <ele>85</ele>
        <time>2025-10-08T12:32:44.000Z</time>
      </trkpt>
      <trkpt lat="43.42887" lon="6.49882">
        <ele>90</ele>
        <time>2025-10-08T12:32:59.000Z</time>
      </trkpt>
      <trkpt lat="43.42888" lon="6.49899">
        <ele>95</ele>
        <time>2025-10-08T12:33:35.000Z</time>
      </trkpt>
      <trkpt lat="43.42894" lon="6.49917">
        <ele>101</ele>
        <time>2025-10-08T12:34:17.000Z</time>
      </trkpt>
      <trkpt lat="43.42904" lon="6.49928">
        <ele>107</ele>
        <time>2025-10-08T12:35:26.000Z</time>
      </trkpt>
      <trkpt lat="43.42917" lon="6.49931">
        <ele>113</ele>
        <time>2025-10-08T12:39:05.000Z</time>
      </trkpt>
      <trkpt lat="43.42926" lon="6.49944">
        <ele>119</ele>
        <time>2025-10-08T12:39:48.000Z</time>
      </trkpt>
      <trkpt lat="43.42931" lon="6.49961">
        <ele>125</ele>
        <time>2025-10-08T12:40:42.000Z</time>
      </trkpt>
      <trkpt lat="43.42938" lon="6.49978">
        <ele>131</ele>
        <time>2025-10-08T12:41:27.000Z</time>
      </trkpt>
      <trkpt lat="43.42945" lon="6.49994">
        <ele>136</ele>
        <time>2025-10-08T12:42:09.000Z</time>
      </trkpt>
      <trkpt lat="43.42951" lon="6.50011">
        <ele>141</ele>
        <time>2025-10-08T12:42:42.000Z</time>
      </trkpt>
      <trkpt lat="43.4296" lon="6.50025">
        <ele>145</ele>
        <time>2025-10-08T12:43:09.000Z</time>
      </trkpt>
      <trkpt lat="43.4297" lon="6.50037">
        <ele>149</ele>
        <time>2025-10-08T12:43:33.000Z</time>
      </trkpt>
      <trkpt lat="43.42982" lon="6.50035">
        <ele>152</ele>
        <time>2025-10-08T12:44:06.000Z</time>
      </trkpt>
      <trkpt lat="43.42995" lon="6.50041">
        <ele>154</ele>
        <time>2025-10-08T12:44:27.000Z</time>
      </trkpt>
      <trkpt lat="43.43006" lon="6.5005">
        <ele>156</ele>
        <time>2025-10-08T12:44:48.000Z</time>
      </trkpt>
      <trkpt lat="43.43009" lon="6.50066">
        <ele>158</ele>
        <time>2025-10-08T12:45:06.000Z</time>
      </trkpt>
      <trkpt lat="43.43021" lon="6.50076">
        <ele>159</ele>
        <time>2025-10-08T12:48:58.000Z</time>
      </trkpt>
      <trkpt lat="43.43036" lon="6.50077">
        <ele>160</ele>
        <time>2025-10-08T12:49:16.000Z</time>
      </trkpt>
      <trkpt lat="43.4305" lon="6.50075">
        <ele>161</ele>
        <time>2025-10-08T12:49:31.000Z</time>
      </trkpt>
      <trkpt lat="43.43064" lon="6.50074">
        <ele>163</ele>
        <time>2025-10-08T12:51:46.000Z</time>
      </trkpt>
      <trkpt lat="43.43076" lon="6.50063">
        <ele>165</ele>
        <time>2025-10-08T12:52:01.000Z</time>
      </trkpt>
      <trkpt lat="43.43087" lon="6.50048">
        <ele>166</ele>
        <time>2025-10-08T12:52:28.000Z</time>
      </trkpt>
      <trkpt lat="43.43094" lon="6.50032">
        <ele>167</ele>
        <time>2025-10-08T12:52:43.000Z</time>
      </trkpt>
      <trkpt lat="43.43103" lon="6.50015">
        <ele>168</ele>
        <time>2025-10-08T12:52:58.000Z</time>
      </trkpt>
      <trkpt lat="43.43115" lon="6.50006">
        <ele>169</ele>
        <time>2025-10-08T12:53:13.000Z</time>
      </trkpt>
      <trkpt lat="43.43128" lon="6.50001">
        <ele>170</ele>
        <time>2025-10-08T12:53:31.000Z</time>
      </trkpt>
      <trkpt lat="43.43143" lon="6.49997">
        <ele>171</ele>
        <time>2025-10-08T12:53:46.000Z</time>
      </trkpt>
      <trkpt lat="43.43157" lon="6.49996">
        <ele>173</ele>
        <time>2025-10-08T12:54:01.000Z</time>
      </trkpt>
      <trkpt lat="43.43171" lon="6.4999">
        <ele>175</ele>
        <time>2025-10-08T12:54:16.000Z</time>
      </trkpt>
      <trkpt lat="43.43183" lon="6.49979">
        <ele>176</ele>
        <time>2025-10-08T12:55:01.000Z</time>
      </trkpt>
      <trkpt lat="43.43194" lon="6.49964">
        <ele>178</ele>
        <time>2025-10-08T12:55:16.000Z</time>
      </trkpt>
      <trkpt lat="43.43206" lon="6.49951">
        <ele>179</ele>
        <time>2025-10-08T12:55:31.000Z</time>
      </trkpt>
      <trkpt lat="43.43218" lon="6.49938">
        <ele>181</ele>
        <time>2025-10-08T12:55:46.000Z</time>
      </trkpt>
      <trkpt lat="43.43229" lon="6.49926">
        <ele>181</ele>
        <time>2025-10-08T12:56:04.000Z</time>
      </trkpt>
      <trkpt lat="43.43237" lon="6.49911">
        <ele>182</ele>
        <time>2025-10-08T12:57:12.000Z</time>
      </trkpt>
      <trkpt lat="43.43241" lon="6.49893">
        <ele>183</ele>
        <time>2025-10-08T13:02:45.000Z</time>
      </trkpt>
      <trkpt lat="43.43247" lon="6.49874">
        <ele>184</ele>
        <time>2025-10-08T13:03:00.000Z</time>
      </trkpt>
      <trkpt lat="43.43249" lon="6.49856">
        <ele>184</ele>
        <time>2025-10-08T13:03:12.000Z</time>
      </trkpt>
      <trkpt lat="43.43251" lon="6.49837">
        <ele>184</ele>
        <time>2025-10-08T13:03:24.000Z</time>
      </trkpt>
      <trkpt lat="43.43255" lon="6.49817">
        <ele>184</ele>
        <time>2025-10-08T13:03:39.000Z</time>
      </trkpt>
      <trkpt lat="43.43256" lon="6.49798">
        <ele>183</ele>
        <time>2025-10-08T13:03:51.000Z</time>
      </trkpt>
      <trkpt lat="43.43262" lon="6.4978">
        <ele>183</ele>
        <time>2025-10-08T13:04:03.000Z</time>
      </trkpt>
      <trkpt lat="43.43269" lon="6.49763">
        <ele>181</ele>
        <time>2025-10-08T13:04:15.000Z</time>
      </trkpt>
      <trkpt lat="43.43277" lon="6.49746">
        <ele>180</ele>
        <time>2025-10-08T13:04:27.000Z</time>
      </trkpt>
      <trkpt lat="43.43287" lon="6.4973">
        <ele>180</ele>
        <time>2025-10-08T13:04:42.000Z</time>
      </trkpt>
      <trkpt lat="43.43293" lon="6.49713">
        <ele>179</ele>
        <time>2025-10-08T13:04:54.000Z</time>
      </trkpt>
      <trkpt lat="43.43299" lon="6.49696">
        <ele>179</ele>
        <time>2025-10-08T13:05:06.000Z</time>
      </trkpt>
      <trkpt lat="43.43304" lon="6.49676">
        <ele>179</ele>
        <time>2025-10-08T13:05:18.000Z</time>
      </trkpt>
      <trkpt lat="43.43309" lon="6.49656">
        <ele>179</ele>
        <time>2025-10-08T13:05:30.000Z</time>
      </trkpt>
      <trkpt lat="43.4331" lon="6.49636">
        <ele>179</ele>
        <time>2025-10-08T13:05:42.000Z</time>
      </trkpt>
      <trkpt lat="43.43309" lon="6.49613">
        <ele>178</ele>
        <time>2025-10-08T13:05:54.000Z</time>
      </trkpt>
      <trkpt lat="43.43309" lon="6.49592">
        <ele>178</ele>
        <time>2025-10-08T13:06:06.000Z</time>
      </trkpt>
      <trkpt lat="43.43311" lon="6.49572">
        <ele>177</ele>
        <time>2025-10-08T13:06:18.000Z</time>
      </trkpt>
      <trkpt lat="43.43313" lon="6.49551">
        <ele>177</ele>
        <time>2025-10-08T13:06:30.000Z</time>
      </trkpt>
      <trkpt lat="43.43315" lon="6.4953">
        <ele>176</ele>
        <time>2025-10-08T13:06:42.000Z</time>
      </trkpt>
      <trkpt lat="43.43316" lon="6.49508">
        <ele>175</ele>
        <time>2025-10-08T13:06:54.000Z</time>
      </trkpt>
      <trkpt lat="43.43319" lon="6.49487">
        <ele>175</ele>
        <time>2025-10-08T13:07:06.000Z</time>
      </trkpt>
      <trkpt lat="43.43321" lon="6.49465">
        <ele>174</ele>
        <time>2025-10-08T13:07:18.000Z</time>
      </trkpt>
      <trkpt lat="43.43321" lon="6.49444">
        <ele>174</ele>
        <time>2025-10-08T13:07:30.000Z</time>
      </trkpt>
      <trkpt lat="43.43319" lon="6.49424">
        <ele>175</ele>
        <time>2025-10-08T13:07:42.000Z</time>
      </trkpt>
      <trkpt lat="43.43317" lon="6.49405">
        <ele>175</ele>
        <time>2025-10-08T13:07:51.000Z</time>
      </trkpt>
      <trkpt lat="43.43315" lon="6.49384">
        <ele>176</ele>
        <time>2025-10-08T13:08:03.000Z</time>
      </trkpt>
      <trkpt lat="43.43311" lon="6.49364">
        <ele>177</ele>
        <time>2025-10-08T13:08:15.000Z</time>
      </trkpt>
      <trkpt lat="43.43306" lon="6.49344">
        <ele>179</ele>
        <time>2025-10-08T13:08:27.000Z</time>
      </trkpt>
      <trkpt lat="43.43301" lon="6.49326">
        <ele>180</ele>
        <time>2025-10-08T13:08:39.000Z</time>
      </trkpt>
      <trkpt lat="43.43294" lon="6.4931">
        <ele>182</ele>
        <time>2025-10-08T13:08:51.000Z</time>
      </trkpt>
      <trkpt lat="43.43286" lon="6.49292">
        <ele>184</ele>
        <time>2025-10-08T13:09:06.000Z</time>
      </trkpt>
      <trkpt lat="43.43275" lon="6.49277">
        <ele>185</ele>
        <time>2025-10-08T13:09:21.000Z</time>
      </trkpt>
      <trkpt lat="43.43266" lon="6.49263">
        <ele>187</ele>
        <time>2025-10-08T13:09:36.000Z</time>
      </trkpt>
      <trkpt lat="43.43255" lon="6.49253">
        <ele>189</ele>
        <time>2025-10-08T13:10:00.000Z</time>
      </trkpt>
      <trkpt lat="43.43242" lon="6.49247">
        <ele>191</ele>
        <time>2025-10-08T13:10:15.000Z</time>
      </trkpt>
      <trkpt lat="43.43227" lon="6.49245">
        <ele>192</ele>
        <time>2025-10-08T13:10:30.000Z</time>
      </trkpt>
      <trkpt lat="43.43213" lon="6.49246">
        <ele>193</ele>
        <time>2025-10-08T13:10:45.000Z</time>
      </trkpt>
      <trkpt lat="43.43197" lon="6.49248">
        <ele>194</ele>
        <time>2025-10-08T13:11:00.000Z</time>
      </trkpt>
      <trkpt lat="43.43183" lon="6.49245">
        <ele>194</ele>
        <time>2025-10-08T13:11:15.000Z</time>
      </trkpt>
      <trkpt lat="43.43169" lon="6.49236">
        <ele>195</ele>
        <time>2025-10-08T13:11:30.000Z</time>
      </trkpt>
      <trkpt lat="43.4316" lon="6.4922">
        <ele>195</ele>
        <time>2025-10-08T13:11:42.000Z</time>
      </trkpt>
      <trkpt lat="43.43154" lon="6.49202">
        <ele>196</ele>
        <time>2025-10-08T13:11:54.000Z</time>
      </trkpt>
      <trkpt lat="43.43146" lon="6.49186">
        <ele>197</ele>
        <time>2025-10-08T13:12:27.000Z</time>
      </trkpt>
      <trkpt lat="43.43135" lon="6.49174">
        <ele>197</ele>
        <time>2025-10-08T13:12:39.000Z</time>
      </trkpt>
      <trkpt lat="43.43122" lon="6.4917">
        <ele>198</ele>
        <time>2025-10-08T13:12:51.000Z</time>
      </trkpt>
      <trkpt lat="43.43106" lon="6.49165">
        <ele>198</ele>
        <time>2025-10-08T13:13:06.000Z</time>
      </trkpt>
      <trkpt lat="43.43093" lon="6.49158">
        <ele>199</ele>
        <time>2025-10-08T13:13:18.000Z</time>
      </trkpt>
      <trkpt lat="43.43081" lon="6.49148">
        <ele>200</ele>
        <time>2025-10-08T13:13:30.000Z</time>
      </trkpt>
      <trkpt lat="43.43071" lon="6.49133">
        <ele>200</ele>
        <time>2025-10-08T13:13:48.000Z</time>
      </trkpt>
      <trkpt lat="43.43059" lon="6.49117">
        <ele>199</ele>
        <time>2025-10-08T13:14:01.000Z</time>
      </trkpt>
      <trkpt lat="43.43047" lon="6.49101">
        <ele>198</ele>
        <time>2025-10-08T13:14:13.000Z</time>
      </trkpt>
      <trkpt lat="43.43037" lon="6.49086">
        <ele>197</ele>
        <time>2025-10-08T13:14:25.000Z</time>
      </trkpt>
      <trkpt lat="43.43025" lon="6.49073">
        <ele>196</ele>
        <time>2025-10-08T13:14:40.000Z</time>
      </trkpt>
      <trkpt lat="43.43014" lon="6.4906">
        <ele>195</ele>
        <time>2025-10-08T13:14:52.000Z</time>
      </trkpt>
      <trkpt lat="43.43001" lon="6.49048">
        <ele>194</ele>
        <time>2025-10-08T13:15:04.000Z</time>
      </trkpt>
      <trkpt lat="43.42987" lon="6.4904">
        <ele>192</ele>
        <time>2025-10-08T13:15:16.000Z</time>
      </trkpt>
      <trkpt lat="43.42972" lon="6.49031">
        <ele>192</ele>
        <time>2025-10-08T13:15:28.000Z</time>
      </trkpt>
      <trkpt lat="43.4296" lon="6.49018">
        <ele>192</ele>
        <time>2025-10-08T13:15:40.000Z</time>
      </trkpt>
      <trkpt lat="43.4295" lon="6.49001">
        <ele>192</ele>
        <time>2025-10-08T13:15:52.000Z</time>
      </trkpt>
      <trkpt lat="43.42939" lon="6.48986">
        <ele>192</ele>
        <time>2025-10-08T13:16:04.000Z</time>
      </trkpt>
      <trkpt lat="43.42928" lon="6.48973">
        <ele>193</ele>
        <time>2025-10-08T13:16:16.000Z</time>
      </trkpt>
      <trkpt lat="43.42915" lon="6.48963">
        <ele>194</ele>
        <time>2025-10-08T13:16:28.000Z</time>
      </trkpt>
      <trkpt lat="43.42903" lon="6.4895">
        <ele>195</ele>
        <time>2025-10-08T13:16:40.000Z</time>
      </trkpt>
      <trkpt lat="43.42893" lon="6.48936">
        <ele>196</ele>
        <time>2025-10-08T13:16:52.000Z</time>
      </trkpt>
      <trkpt lat="43.42883" lon="6.48922">
        <ele>197</ele>
        <time>2025-10-08T13:17:04.000Z</time>
      </trkpt>
      <trkpt lat="43.42871" lon="6.4891">
        <ele>198</ele>
        <time>2025-10-08T13:17:19.000Z</time>
      </trkpt>
      <trkpt lat="43.42858" lon="6.48906">
        <ele>199</ele>
        <time>2025-10-08T13:17:31.000Z</time>
      </trkpt>
      <trkpt lat="43.42844" lon="6.48908">
        <ele>200</ele>
        <time>2025-10-08T13:17:46.000Z</time>
      </trkpt>
      <trkpt lat="43.4283" lon="6.48907">
        <ele>201</ele>
        <time>2025-10-08T13:17:58.000Z</time>
      </trkpt>
      <trkpt lat="43.42814" lon="6.48905">
        <ele>202</ele>
        <time>2025-10-08T13:18:10.000Z</time>
      </trkpt>
      <trkpt lat="43.42801" lon="6.48901">
        <ele>202</ele>
        <time>2025-10-08T13:18:22.000Z</time>
      </trkpt>
      <trkpt lat="43.42788" lon="6.48891">
        <ele>203</ele>
        <time>2025-10-08T13:18:47.000Z</time>
      </trkpt>
      <trkpt lat="43.42779" lon="6.48876">
        <ele>204</ele>
        <time>2025-10-08T13:18:59.000Z</time>
      </trkpt>
      <trkpt lat="43.42772" lon="6.48858">
        <ele>205</ele>
        <time>2025-10-08T13:19:14.000Z</time>
      </trkpt>
      <trkpt lat="43.42768" lon="6.48837">
        <ele>205</ele>
        <time>2025-10-08T13:24:24.000Z</time>
      </trkpt>
      <trkpt lat="43.42769" lon="6.48817">
        <ele>206</ele>
        <time>2025-10-08T13:24:36.000Z</time>
      </trkpt>
      <trkpt lat="43.42771" lon="6.48798">
        <ele>207</ele>
        <time>2025-10-08T13:24:45.000Z</time>
      </trkpt>
      <trkpt lat="43.42773" lon="6.48778">
        <ele>207</ele>
        <time>2025-10-08T13:24:57.000Z</time>
      </trkpt>
      <trkpt lat="43.42774" lon="6.48756">
        <ele>207</ele>
        <time>2025-10-08T13:25:10.000Z</time>
      </trkpt>
      <trkpt lat="43.42772" lon="6.48736">
        <ele>208</ele>
        <time>2025-10-08T13:25:22.000Z</time>
      </trkpt>
      <trkpt lat="43.42769" lon="6.48718">
        <ele>208</ele>
        <time>2025-10-08T13:25:34.000Z</time>
      </trkpt>
      <trkpt lat="43.42762" lon="6.48698">
        <ele>209</ele>
        <time>2025-10-08T13:25:46.000Z</time>
      </trkpt>
      <trkpt lat="43.42753" lon="6.48682">
        <ele>209</ele>
        <time>2025-10-08T13:25:58.000Z</time>
      </trkpt>
      <trkpt lat="43.42744" lon="6.48666">
        <ele>210</ele>
        <time>2025-10-08T13:26:10.000Z</time>
      </trkpt>
      <trkpt lat="43.42735" lon="6.4865">
        <ele>211</ele>
        <time>2025-10-08T13:26:22.000Z</time>
      </trkpt>
      <trkpt lat="43.42725" lon="6.48636">
        <ele>212</ele>
        <time>2025-10-08T13:26:34.000Z</time>
      </trkpt>
      <trkpt lat="43.42714" lon="6.48623">
        <ele>213</ele>
        <time>2025-10-08T13:26:46.000Z</time>
      </trkpt>
      <trkpt lat="43.42703" lon="6.48612">
        <ele>214</ele>
        <time>2025-10-08T13:26:58.000Z</time>
      </trkpt>
      <trkpt lat="43.42692" lon="6.486">
        <ele>215</ele>
        <time>2025-10-08T13:27:10.000Z</time>
      </trkpt>
      <trkpt lat="43.42682" lon="6.48585">
        <ele>215</ele>
        <time>2025-10-08T13:27:23.000Z</time>
      </trkpt>
      <trkpt lat="43.42678" lon="6.4857">
        <ele>215</ele>
        <time>2025-10-08T13:28:05.000Z</time>
      </trkpt>
      <trkpt lat="43.42665" lon="6.48574">
        <ele>216</ele>
        <time>2025-10-08T13:30:53.000Z</time>
      </trkpt>
      <trkpt lat="43.4265" lon="6.48573">
        <ele>216</ele>
        <time>2025-10-08T13:31:08.000Z</time>
      </trkpt>
      <trkpt lat="43.42635" lon="6.48572">
        <ele>217</ele>
        <time>2025-10-08T13:31:23.000Z</time>
      </trkpt>
      <trkpt lat="43.4262" lon="6.48572">
        <ele>218</ele>
        <time>2025-10-08T13:31:47.000Z</time>
      </trkpt>
      <trkpt lat="43.42607" lon="6.48567">
        <ele>219</ele>
        <time>2025-10-08T13:32:08.000Z</time>
      </trkpt>
      <trkpt lat="43.42594" lon="6.4856">
        <ele>220</ele>
        <time>2025-10-08T13:32:23.000Z</time>
      </trkpt>
      <trkpt lat="43.42581" lon="6.48553">
        <ele>221</ele>
        <time>2025-10-08T13:32:35.000Z</time>
      </trkpt>
      <trkpt lat="43.42567" lon="6.48548">
        <ele>223</ele>
        <time>2025-10-08T13:32:50.000Z</time>
      </trkpt>
      <trkpt lat="43.42553" lon="6.48544">
        <ele>224</ele>
        <time>2025-10-08T13:33:05.000Z</time>
      </trkpt>
      <trkpt lat="43.42538" lon="6.48541">
        <ele>226</ele>
        <time>2025-10-08T13:33:23.000Z</time>
      </trkpt>
      <trkpt lat="43.42523" lon="6.48542">
        <ele>227</ele>
        <time>2025-10-08T13:33:41.000Z</time>
      </trkpt>
      <trkpt lat="43.42509" lon="6.48547">
        <ele>229</ele>
        <time>2025-10-08T13:33:56.000Z</time>
      </trkpt>
      <trkpt lat="43.42496" lon="6.48549">
        <ele>230</ele>
        <time>2025-10-08T13:34:11.000Z</time>
      </trkpt>
      <trkpt lat="43.42482" lon="6.48552">
        <ele>231</ele>
        <time>2025-10-08T13:34:23.000Z</time>
      </trkpt>
      <trkpt lat="43.42467" lon="6.48553">
        <ele>231</ele>
        <time>2025-10-08T13:34:38.000Z</time>
      </trkpt>
      <trkpt lat="43.42453" lon="6.48552">
        <ele>232</ele>
        <time>2025-10-08T13:34:50.000Z</time>
      </trkpt>
      <trkpt lat="43.42439" lon="6.48553">
        <ele>232</ele>
        <time>2025-10-08T13:35:02.000Z</time>
      </trkpt>
      <trkpt lat="43.42423" lon="6.48554">
        <ele>232</ele>
        <time>2025-10-08T13:35:14.000Z</time>
      </trkpt>
      <trkpt lat="43.42409" lon="6.48556">
        <ele>232</ele>
        <time>2025-10-08T13:35:26.000Z</time>
      </trkpt>
      <trkpt lat="43.42393" lon="6.48559">
        <ele>232</ele>
        <time>2025-10-08T13:35:38.000Z</time>
      </trkpt>
      <trkpt lat="43.42379" lon="6.48559">
        <ele>233</ele>
        <time>2025-10-08T13:35:50.000Z</time>
      </trkpt>
      <trkpt lat="43.42368" lon="6.48568">
        <ele>233</ele>
        <time>2025-10-08T13:36:35.000Z</time>
      </trkpt>
      <trkpt lat="43.42356" lon="6.48579">
        <ele>233</ele>
        <time>2025-10-08T13:36:47.000Z</time>
      </trkpt>
      <trkpt lat="43.42345" lon="6.48591">
        <ele>232</ele>
        <time>2025-10-08T13:37:00.000Z</time>
      </trkpt>
      <trkpt lat="43.42331" lon="6.48599">
        <ele>232</ele>
        <time>2025-10-08T13:37:12.000Z</time>
      </trkpt>
      <trkpt lat="43.42317" lon="6.48605">
        <ele>232</ele>
        <time>2025-10-08T13:37:24.000Z</time>
      </trkpt>
      <trkpt lat="43.42304" lon="6.48613">
        <ele>232</ele>
        <time>2025-10-08T13:37:36.000Z</time>
      </trkpt>
      <trkpt lat="43.42291" lon="6.48624">
        <ele>232</ele>
        <time>2025-10-08T13:37:48.000Z</time>
      </trkpt>
      <trkpt lat="43.42278" lon="6.48637">
        <ele>232</ele>
        <time>2025-10-08T13:38:03.000Z</time>
      </trkpt>
      <trkpt lat="43.4227" lon="6.48655">
        <ele>232</ele>
        <time>2025-10-08T13:38:18.000Z</time>
      </trkpt>
      <trkpt lat="43.42267" lon="6.48675">
        <ele>231</ele>
        <time>2025-10-08T13:38:30.000Z</time>
      </trkpt>
      <trkpt lat="43.42267" lon="6.48696">
        <ele>231</ele>
        <time>2025-10-08T13:38:45.000Z</time>
      </trkpt>
      <trkpt lat="43.42265" lon="6.48716">
        <ele>231</ele>
        <time>2025-10-08T13:38:57.000Z</time>
      </trkpt>
      <trkpt lat="43.42263" lon="6.48735">
        <ele>231</ele>
        <time>2025-10-08T13:39:09.000Z</time>
      </trkpt>
      <trkpt lat="43.42259" lon="6.48753">
        <ele>230</ele>
        <time>2025-10-08T13:39:21.000Z</time>
      </trkpt>
      <trkpt lat="43.42259" lon="6.48773">
        <ele>230</ele>
        <time>2025-10-08T13:39:33.000Z</time>
      </trkpt>
      <trkpt lat="43.42262" lon="6.48793">
        <ele>230</ele>
        <time>2025-10-08T13:39:45.000Z</time>
      </trkpt>
      <trkpt lat="43.42264" lon="6.48813">
        <ele>230</ele>
        <time>2025-10-08T13:39:57.000Z</time>
      </trkpt>
      <trkpt lat="43.42263" lon="6.48831">
        <ele>230</ele>
        <time>2025-10-08T13:40:09.000Z</time>
      </trkpt>
      <trkpt lat="43.42256" lon="6.48845">
        <ele>230</ele>
        <time>2025-10-08T13:42:48.000Z</time>
      </trkpt>
      <trkpt lat="43.42244" lon="6.48842">
        <ele>230</ele>
        <time>2025-10-08T13:43:00.000Z</time>
      </trkpt>
      <trkpt lat="43.42232" lon="6.48833">
        <ele>229</ele>
        <time>2025-10-08T13:43:24.000Z</time>
      </trkpt>
      <trkpt lat="43.42223" lon="6.48816">
        <ele>229</ele>
        <time>2025-10-08T13:43:39.000Z</time>
      </trkpt>
      <trkpt lat="43.42211" lon="6.48802">
        <ele>228</ele>
        <time>2025-10-08T13:43:54.000Z</time>
      </trkpt>
      <trkpt lat="43.42197" lon="6.48796">
        <ele>227</ele>
        <time>2025-10-08T13:44:15.000Z</time>
      </trkpt>
      <trkpt lat="43.42183" lon="6.48791">
        <ele>225</ele>
        <time>2025-10-08T13:44:33.000Z</time>
      </trkpt>
      <trkpt lat="43.42169" lon="6.48787">
        <ele>224</ele>
        <time>2025-10-08T13:44:48.000Z</time>
      </trkpt>
      <trkpt lat="43.42155" lon="6.48781">
        <ele>221</ele>
        <time>2025-10-08T13:45:03.000Z</time>
      </trkpt>
      <trkpt lat="43.42141" lon="6.48773">
        <ele>219</ele>
        <time>2025-10-08T13:45:21.000Z</time>
      </trkpt>
      <trkpt lat="43.42127" lon="6.48765">
        <ele>217</ele>
        <time>2025-10-08T13:45:39.000Z</time>
      </trkpt>
      <trkpt lat="43.42115" lon="6.48757">
        <ele>214</ele>
        <time>2025-10-08T13:45:57.000Z</time>
      </trkpt>
      <trkpt lat="43.42102" lon="6.4875">
        <ele>211</ele>
        <time>2025-10-08T13:46:15.000Z</time>
      </trkpt>
      <trkpt lat="43.42088" lon="6.48746">
        <ele>207</ele>
        <time>2025-10-08T13:46:36.000Z</time>
      </trkpt>
      <trkpt lat="43.42074" lon="6.48742">
        <ele>204</ele>
        <time>2025-10-08T13:46:57.000Z</time>
      </trkpt>
      <trkpt lat="43.4206" lon="6.48739">
        <ele>201</ele>
        <time>2025-10-08T13:47:21.000Z</time>
      </trkpt>
      <trkpt lat="43.42047" lon="6.48736">
        <ele>198</ele>
        <time>2025-10-08T13:47:42.000Z</time>
      </trkpt>
      <trkpt lat="43.42033" lon="6.48737">
        <ele>195</ele>
        <time>2025-10-08T13:48:03.000Z</time>
      </trkpt>
      <trkpt lat="43.42019" lon="6.48736">
        <ele>193</ele>
        <time>2025-10-08T13:48:21.000Z</time>
      </trkpt>
      <trkpt lat="43.42006" lon="6.48738">
        <ele>192</ele>
        <time>2025-10-08T13:48:39.000Z</time>
      </trkpt>
      <trkpt lat="43.41993" lon="6.4874">
        <ele>191</ele>
        <time>2025-10-08T13:48:51.000Z</time>
      </trkpt>
      <trkpt lat="43.4198" lon="6.48736">
        <ele>190</ele>
        <time>2025-10-08T13:49:03.000Z</time>
      </trkpt>
      <trkpt lat="43.41967" lon="6.48737">
        <ele>189</ele>
        <time>2025-10-08T13:49:15.000Z</time>
      </trkpt>
      <trkpt lat="43.41953" lon="6.4874">
        <ele>188</ele>
        <time>2025-10-08T13:49:27.000Z</time>
      </trkpt>
      <trkpt lat="43.41941" lon="6.48745">
        <ele>187</ele>
        <time>2025-10-08T13:49:39.000Z</time>
      </trkpt>
      <trkpt lat="43.41926" lon="6.4875">
        <ele>186</ele>
        <time>2025-10-08T13:49:51.000Z</time>
      </trkpt>
      <trkpt lat="43.41915" lon="6.48759">
        <ele>184</ele>
        <time>2025-10-08T13:50:03.000Z</time>
      </trkpt>
      <trkpt lat="43.419" lon="6.48764">
        <ele>182</ele>
        <time>2025-10-08T13:50:18.000Z</time>
      </trkpt>
      <trkpt lat="43.41885" lon="6.48762">
        <ele>180</ele>
        <time>2025-10-08T13:50:33.000Z</time>
      </trkpt>
      <trkpt lat="43.4187" lon="6.4876">
        <ele>178</ele>
        <time>2025-10-08T13:50:51.000Z</time>
      </trkpt>
      <trkpt lat="43.41857" lon="6.48759">
        <ele>176</ele>
        <time>2025-10-08T13:51:09.000Z</time>
      </trkpt>
      <trkpt lat="43.41844" lon="6.48765">
        <ele>174</ele>
        <time>2025-10-08T13:51:24.000Z</time>
      </trkpt>
      <trkpt lat="43.4183" lon="6.48768">
        <ele>172</ele>
        <time>2025-10-08T13:51:39.000Z</time>
      </trkpt>
      <trkpt lat="43.41817" lon="6.48774">
        <ele>170</ele>
        <time>2025-10-08T13:51:57.000Z</time>
      </trkpt>
      <trkpt lat="43.41803" lon="6.48783">
        <ele>168</ele>
        <time>2025-10-08T13:52:18.000Z</time>
      </trkpt>
      <trkpt lat="43.41791" lon="6.48791">
        <ele>166</ele>
        <time>2025-10-08T13:52:30.000Z</time>
      </trkpt>
      <trkpt lat="43.4178" lon="6.48802">
        <ele>164</ele>
        <time>2025-10-08T13:52:45.000Z</time>
      </trkpt>
      <trkpt lat="43.41773" lon="6.48818">
        <ele>162</ele>
        <time>2025-10-08T13:53:03.000Z</time>
      </trkpt>
      <trkpt lat="43.41767" lon="6.48836">
        <ele>160</ele>
        <time>2025-10-08T13:53:21.000Z</time>
      </trkpt>
      <trkpt lat="43.4176" lon="6.48854">
        <ele>156</ele>
        <time>2025-10-08T13:53:36.000Z</time>
      </trkpt>
      <trkpt lat="43.41752" lon="6.48869">
        <ele>153</ele>
        <time>2025-10-08T13:53:51.000Z</time>
      </trkpt>
      <trkpt lat="43.41743" lon="6.48883">
        <ele>150</ele>
        <time>2025-10-08T13:54:09.000Z</time>
      </trkpt>
      <trkpt lat="43.41732" lon="6.48893">
        <ele>147</ele>
        <time>2025-10-08T13:54:36.000Z</time>
      </trkpt>
      <trkpt lat="43.41721" lon="6.48904">
        <ele>144</ele>
        <time>2025-10-08T13:55:00.000Z</time>
      </trkpt>
      <trkpt lat="43.41711" lon="6.48917">
        <ele>140</ele>
        <time>2025-10-08T13:55:15.000Z</time>
      </trkpt>
      <trkpt lat="43.417" lon="6.48928">
        <ele>136</ele>
        <time>2025-10-08T13:55:36.000Z</time>
      </trkpt>
      <trkpt lat="43.4169" lon="6.48941">
        <ele>133</ele>
        <time>2025-10-08T13:56:12.000Z</time>
      </trkpt>
      <trkpt lat="43.41683" lon="6.48957">
        <ele>130</ele>
        <time>2025-10-08T13:56:36.000Z</time>
      </trkpt>
      <trkpt lat="43.41682" lon="6.48975">
        <ele>128</ele>
        <time>2025-10-08T13:57:03.000Z</time>
      </trkpt>
      <trkpt lat="43.41686" lon="6.48991">
        <ele>126</ele>
        <time>2025-10-08T14:08:00.000Z</time>
      </trkpt>
      <trkpt lat="43.41699" lon="6.48989">
        <ele>125</ele>
        <time>2025-10-08T14:08:57.000Z</time>
      </trkpt>
      <trkpt lat="43.41713" lon="6.48987">
        <ele>123</ele>
        <time>2025-10-08T14:09:09.000Z</time>
      </trkpt>
      <trkpt lat="43.41728" lon="6.48986">
        <ele>122</ele>
        <time>2025-10-08T14:09:24.000Z</time>
      </trkpt>
      <trkpt lat="43.41741" lon="6.48994">
        <ele>121</ele>
        <time>2025-10-08T14:09:36.000Z</time>
      </trkpt>
      <trkpt lat="43.41754" lon="6.49001">
        <ele>121</ele>
        <time>2025-10-08T14:09:48.000Z</time>
      </trkpt>
      <trkpt lat="43.41769" lon="6.49002">
        <ele>121</ele>
        <time>2025-10-08T14:10:00.000Z</time>
      </trkpt>
      <trkpt lat="43.41783" lon="6.48994">
        <ele>121</ele>
        <time>2025-10-08T14:10:12.000Z</time>
      </trkpt>
      <trkpt lat="43.41794" lon="6.48981">
        <ele>121</ele>
        <time>2025-10-08T14:10:24.000Z</time>
      </trkpt>
      <trkpt lat="43.41805" lon="6.48965">
        <ele>121</ele>
        <time>2025-10-08T14:10:39.000Z</time>
      </trkpt>
      <trkpt lat="43.41809" lon="6.48948">
        <ele>121</ele>
        <time>2025-10-08T14:10:51.000Z</time>
      </trkpt>
      <trkpt lat="43.4182" lon="6.48939">
        <ele>121</ele>
        <time>2025-10-08T14:11:06.000Z</time>
      </trkpt>
      <trkpt lat="43.41834" lon="6.48937">
        <ele>121</ele>
        <time>2025-10-08T14:11:18.000Z</time>
      </trkpt>
      <trkpt lat="43.41849" lon="6.4894">
        <ele>121</ele>
        <time>2025-10-08T14:11:30.000Z</time>
      </trkpt>
      <trkpt lat="43.41863" lon="6.48946">
        <ele>121</ele>
        <time>2025-10-08T14:11:42.000Z</time>
      </trkpt>
      <trkpt lat="43.41878" lon="6.4895">
        <ele>121</ele>
        <time>2025-10-08T14:11:54.000Z</time>
      </trkpt>
      <trkpt lat="43.41893" lon="6.4895">
        <ele>120</ele>
        <time>2025-10-08T14:12:09.000Z</time>
      </trkpt>
      <trkpt lat="43.41907" lon="6.48947">
        <ele>120</ele>
        <time>2025-10-08T14:12:21.000Z</time>
      </trkpt>
      <trkpt lat="43.4192" lon="6.48937">
        <ele>119</ele>
        <time>2025-10-08T14:12:33.000Z</time>
      </trkpt>
      <trkpt lat="43.41931" lon="6.48932">
        <ele>119</ele>
        <time>2025-10-08T14:12:48.000Z</time>
      </trkpt>
      <trkpt lat="43.41933" lon="6.48949">
        <ele>119</ele>
        <time>2025-10-08T14:13:03.000Z</time>
      </trkpt>
      <trkpt lat="43.41928" lon="6.48967">
        <ele>120</ele>
        <time>2025-10-08T14:13:15.000Z</time>
      </trkpt>
      <trkpt lat="43.41921" lon="6.48984">
        <ele>120</ele>
        <time>2025-10-08T14:13:27.000Z</time>
      </trkpt>
      <trkpt lat="43.4192" lon="6.49001">
        <ele>121</ele>
        <time>2025-10-08T14:13:42.000Z</time>
      </trkpt>
      <trkpt lat="43.41929" lon="6.49013">
        <ele>122</ele>
        <time>2025-10-08T14:13:54.000Z</time>
      </trkpt>
      <trkpt lat="43.41943" lon="6.49022">
        <ele>122</ele>
        <time>2025-10-08T14:14:57.000Z</time>
      </trkpt>
      <trkpt lat="43.41955" lon="6.49034">
        <ele>121</ele>
        <time>2025-10-08T14:15:12.000Z</time>
      </trkpt>
      <trkpt lat="43.41967" lon="6.49045">
        <ele>121</ele>
        <time>2025-10-08T14:15:24.000Z</time>
      </trkpt>
      <trkpt lat="43.41979" lon="6.4906">
        <ele>121</ele>
        <time>2025-10-08T14:15:39.000Z</time>
      </trkpt>
      <trkpt lat="43.41987" lon="6.49078">
        <ele>121</ele>
        <time>2025-10-08T14:15:51.000Z</time>
      </trkpt>
      <trkpt lat="43.41999" lon="6.49091">
        <ele>120</ele>
        <time>2025-10-08T14:16:06.000Z</time>
      </trkpt>
      <trkpt lat="43.42012" lon="6.49095">
        <ele>121</ele>
        <time>2025-10-08T14:16:18.000Z</time>
      </trkpt>
      <trkpt lat="43.42025" lon="6.49102">
        <ele>120</ele>
        <time>2025-10-08T14:16:30.000Z</time>
      </trkpt>
      <trkpt lat="43.42037" lon="6.49115">
        <ele>120</ele>
        <time>2025-10-08T14:16:42.000Z</time>
      </trkpt>
      <trkpt lat="43.42048" lon="6.49131">
        <ele>120</ele>
        <time>2025-10-08T14:16:57.000Z</time>
      </trkpt>
      <trkpt lat="43.42057" lon="6.49146">
        <ele>119</ele>
        <time>2025-10-08T14:17:09.000Z</time>
      </trkpt>
      <trkpt lat="43.42067" lon="6.49159">
        <ele>119</ele>
        <time>2025-10-08T14:17:21.000Z</time>
      </trkpt>
      <trkpt lat="43.42079" lon="6.49172">
        <ele>119</ele>
        <time>2025-10-08T14:17:36.000Z</time>
      </trkpt>
      <trkpt lat="43.42091" lon="6.49185">
        <ele>118</ele>
        <time>2025-10-08T14:17:48.000Z</time>
      </trkpt>
      <trkpt lat="43.421" lon="6.49198">
        <ele>118</ele>
        <time>2025-10-08T14:18:00.000Z</time>
      </trkpt>
      <trkpt lat="43.4211" lon="6.49213">
        <ele>118</ele>
        <time>2025-10-08T14:18:13.000Z</time>
      </trkpt>
      <trkpt lat="43.42121" lon="6.49225">
        <ele>118</ele>
        <time>2025-10-08T14:18:25.000Z</time>
      </trkpt>
      <trkpt lat="43.42134" lon="6.49233">
        <ele>118</ele>
        <time>2025-10-08T14:18:37.000Z</time>
      </trkpt>
      <trkpt lat="43.42149" lon="6.49233">
        <ele>117</ele>
        <time>2025-10-08T14:18:52.000Z</time>
      </trkpt>
      <trkpt lat="43.42163" lon="6.49227">
        <ele>116</ele>
        <time>2025-10-08T14:19:04.000Z</time>
      </trkpt>
      <trkpt lat="43.42178" lon="6.49227">
        <ele>116</ele>
        <time>2025-10-08T14:19:19.000Z</time>
      </trkpt>
      <trkpt lat="43.42191" lon="6.49235">
        <ele>116</ele>
        <time>2025-10-08T14:19:34.000Z</time>
      </trkpt>
      <trkpt lat="43.42205" lon="6.49239">
        <ele>116</ele>
        <time>2025-10-08T14:19:49.000Z</time>
      </trkpt>
      <trkpt lat="43.42213" lon="6.49252">
        <ele>117</ele>
        <time>2025-10-08T14:20:07.000Z</time>
      </trkpt>
      <trkpt lat="43.42209" lon="6.49271">
        <ele>117</ele>
        <time>2025-10-08T14:20:22.000Z</time>
      </trkpt>
      <trkpt lat="43.42206" lon="6.49291">
        <ele>118</ele>
        <time>2025-10-08T14:20:37.000Z</time>
      </trkpt>
      <trkpt lat="43.42208" lon="6.49311">
        <ele>118</ele>
        <time>2025-10-08T14:20:52.000Z</time>
      </trkpt>
      <trkpt lat="43.42217" lon="6.49326">
        <ele>118</ele>
        <time>2025-10-08T14:21:07.000Z</time>
      </trkpt>
      <trkpt lat="43.42227" lon="6.49338">
        <ele>119</ele>
        <time>2025-10-08T14:21:19.000Z</time>
      </trkpt>
      <trkpt lat="43.42241" lon="6.49347">
        <ele>120</ele>
        <time>2025-10-08T14:21:34.000Z</time>
      </trkpt>
      <trkpt lat="43.42254" lon="6.49348">
        <ele>120</ele>
        <time>2025-10-08T14:21:46.000Z</time>
      </trkpt>
      <trkpt lat="43.42267" lon="6.49353">
        <ele>121</ele>
        <time>2025-10-08T14:21:58.000Z</time>
      </trkpt>
      <trkpt lat="43.42279" lon="6.4936">
        <ele>121</ele>
        <time>2025-10-08T14:22:10.000Z</time>
      </trkpt>
      <trkpt lat="43.42292" lon="6.49366">
        <ele>122</ele>
        <time>2025-10-08T14:22:22.000Z</time>
      </trkpt>
      <trkpt lat="43.42305" lon="6.49373">
        <ele>122</ele>
        <time>2025-10-08T14:22:34.000Z</time>
      </trkpt>
      <trkpt lat="43.42318" lon="6.49378">
        <ele>123</ele>
        <time>2025-10-08T14:22:46.000Z</time>
      </trkpt>
      <trkpt lat="43.42331" lon="6.49383">
        <ele>124</ele>
        <time>2025-10-08T14:22:58.000Z</time>
      </trkpt>
      <trkpt lat="43.42344" lon="6.4939">
        <ele>125</ele>
        <time>2025-10-08T14:23:10.000Z</time>
      </trkpt>
      <trkpt lat="43.42357" lon="6.49396">
        <ele>125</ele>
        <time>2025-10-08T14:23:22.000Z</time>
      </trkpt>
      <trkpt lat="43.42369" lon="6.49392">
        <ele>126</ele>
        <time>2025-10-08T14:23:34.000Z</time>
      </trkpt>
      <trkpt lat="43.42382" lon="6.49383">
        <ele>127</ele>
        <time>2025-10-08T14:23:46.000Z</time>
      </trkpt>
      <trkpt lat="43.42394" lon="6.4938">
        <ele>127</ele>
        <time>2025-10-08T14:23:58.000Z</time>
      </trkpt>
      <trkpt lat="43.42408" lon="6.49378">
        <ele>128</ele>
        <time>2025-10-08T14:24:10.000Z</time>
      </trkpt>
      <trkpt lat="43.42422" lon="6.49381">
        <ele>129</ele>
        <time>2025-10-08T14:24:22.000Z</time>
      </trkpt>
      <trkpt lat="43.42436" lon="6.49378">
        <ele>129</ele>
        <time>2025-10-08T14:24:37.000Z</time>
      </trkpt>
      <trkpt lat="43.42448" lon="6.49367">
        <ele>130</ele>
        <time>2025-10-08T14:24:49.000Z</time>
      </trkpt>
      <trkpt lat="43.42458" lon="6.49351">
        <ele>130</ele>
        <time>2025-10-08T14:25:04.000Z</time>
      </trkpt>
      <trkpt lat="43.42467" lon="6.49335">
        <ele>131</ele>
        <time>2025-10-08T14:25:16.000Z</time>
      </trkpt>
      <trkpt lat="43.42476" lon="6.4932">
        <ele>131</ele>
        <time>2025-10-08T14:25:28.000Z</time>
      </trkpt>
      <trkpt lat="43.42488" lon="6.49311">
        <ele>132</ele>
        <time>2025-10-08T14:25:40.000Z</time>
      </trkpt>
      <trkpt lat="43.42498" lon="6.49299">
        <ele>132</ele>
        <time>2025-10-08T14:25:52.000Z</time>
      </trkpt>
      <trkpt lat="43.42505" lon="6.49282">
        <ele>133</ele>
        <time>2025-10-08T14:26:04.000Z</time>
      </trkpt>
      <trkpt lat="43.4251" lon="6.49264">
        <ele>134</ele>
        <time>2025-10-08T14:26:16.000Z</time>
      </trkpt>
      <trkpt lat="43.42515" lon="6.49246">
        <ele>135</ele>
        <time>2025-10-08T14:26:28.000Z</time>
      </trkpt>
      <trkpt lat="43.42518" lon="6.49229">
        <ele>136</ele>
        <time>2025-10-08T14:26:40.000Z</time>
      </trkpt>
      <trkpt lat="43.42532" lon="6.49221">
        <ele>136</ele>
        <time>2025-10-08T14:26:52.000Z</time>
      </trkpt>
      <trkpt lat="43.42543" lon="6.49209">
        <ele>136</ele>
        <time>2025-10-08T14:27:07.000Z</time>
      </trkpt>
      <trkpt lat="43.42547" lon="6.4919">
        <ele>137</ele>
        <time>2025-10-08T14:27:19.000Z</time>
      </trkpt>
      <trkpt lat="43.42552" lon="6.49171">
        <ele>137</ele>
        <time>2025-10-08T14:27:34.000Z</time>
      </trkpt>
      <trkpt lat="43.42556" lon="6.49152">
        <ele>137</ele>
        <time>2025-10-08T14:27:49.000Z</time>
      </trkpt>
      <trkpt lat="43.42557" lon="6.49133">
        <ele>138</ele>
        <time>2025-10-08T14:28:04.000Z</time>
      </trkpt>
      <trkpt lat="43.42553" lon="6.49117">
        <ele>139</ele>
        <time>2025-10-08T14:28:16.000Z</time>
      </trkpt>
      <trkpt lat="43.42547" lon="6.491">
        <ele>139</ele>
        <time>2025-10-08T14:28:28.000Z</time>
      </trkpt>
      <trkpt lat="43.42541" lon="6.49082">
        <ele>140</ele>
        <time>2025-10-08T14:28:40.000Z</time>
      </trkpt>
      <trkpt lat="43.42535" lon="6.49065">
        <ele>141</ele>
        <time>2025-10-08T14:28:52.000Z</time>
      </trkpt>
      <trkpt lat="43.42541" lon="6.49052">
        <ele>142</ele>
        <time>2025-10-08T14:29:04.000Z</time>
      </trkpt>
      <trkpt lat="43.42554" lon="6.49057">
        <ele>142</ele>
        <time>2025-10-08T14:29:16.000Z</time>
      </trkpt>
      <trkpt lat="43.42564" lon="6.4907">
        <ele>142</ele>
        <time>2025-10-08T14:29:28.000Z</time>
      </trkpt>
      <trkpt lat="43.42576" lon="6.49082">
        <ele>142</ele>
        <time>2025-10-08T14:29:43.000Z</time>
      </trkpt>
      <trkpt lat="43.42589" lon="6.49092">
        <ele>141</ele>
        <time>2025-10-08T14:29:55.000Z</time>
      </trkpt>
      <trkpt lat="43.426" lon="6.49105">
        <ele>142</ele>
        <time>2025-10-08T14:30:07.000Z</time>
      </trkpt>
      <trkpt lat="43.42612" lon="6.49118">
        <ele>142</ele>
        <time>2025-10-08T14:30:19.000Z</time>
      </trkpt>
      <trkpt lat="43.42623" lon="6.4913">
        <ele>142</ele>
        <time>2025-10-08T14:30:31.000Z</time>
      </trkpt>
      <trkpt lat="43.42636" lon="6.49139">
        <ele>142</ele>
        <time>2025-10-08T14:30:43.000Z</time>
      </trkpt>
      <trkpt lat="43.4265" lon="6.49138">
        <ele>142</ele>
        <time>2025-10-08T14:30:55.000Z</time>
      </trkpt>
      <trkpt lat="43.42664" lon="6.49136">
        <ele>142</ele>
        <time>2025-10-08T14:31:07.000Z</time>
      </trkpt>
      <trkpt lat="43.42678" lon="6.49132">
        <ele>142</ele>
        <time>2025-10-08T14:31:19.000Z</time>
      </trkpt>
      <trkpt lat="43.42688" lon="6.49118">
        <ele>142</ele>
        <time>2025-10-08T14:31:31.000Z</time>
      </trkpt>
      <trkpt lat="43.42688" lon="6.491">
        <ele>142</ele>
        <time>2025-10-08T14:31:43.000Z</time>
      </trkpt>
      <trkpt lat="43.42685" lon="6.4908">
        <ele>143</ele>
        <time>2025-10-08T14:31:55.000Z</time>
      </trkpt>
      <trkpt lat="43.42685" lon="6.49061">
        <ele>143</ele>
        <time>2025-10-08T14:32:07.000Z</time>
      </trkpt>
      <trkpt lat="43.42689" lon="6.49043">
        <ele>143</ele>
        <time>2025-10-08T14:32:19.000Z</time>
      </trkpt>
      <trkpt lat="43.42701" lon="6.49049">
        <ele>143</ele>
        <time>2025-10-08T14:32:31.000Z</time>
      </trkpt>
      <trkpt lat="43.4271" lon="6.49066">
        <ele>142</ele>
        <time>2025-10-08T14:32:43.000Z</time>
      </trkpt>
      <trkpt lat="43.42719" lon="6.49084">
        <ele>142</ele>
        <time>2025-10-08T14:32:58.000Z</time>
      </trkpt>
      <trkpt lat="43.42729" lon="6.49097">
        <ele>142</ele>
        <time>2025-10-08T14:33:10.000Z</time>
      </trkpt>
      <trkpt lat="43.42738" lon="6.49113">
        <ele>142</ele>
        <time>2025-10-08T14:33:22.000Z</time>
      </trkpt>
      <trkpt lat="43.42746" lon="6.49129">
        <ele>142</ele>
        <time>2025-10-08T14:33:34.000Z</time>
      </trkpt>
      <trkpt lat="43.42758" lon="6.49139">
        <ele>142</ele>
        <time>2025-10-08T14:33:46.000Z</time>
      </trkpt>
      <trkpt lat="43.42771" lon="6.49142">
        <ele>143</ele>
        <time>2025-10-08T14:33:58.000Z</time>
      </trkpt>
      <trkpt lat="43.42786" lon="6.49142">
        <ele>144</ele>
        <time>2025-10-08T14:34:13.000Z</time>
      </trkpt>
      <trkpt lat="43.42802" lon="6.49139">
        <ele>144</ele>
        <time>2025-10-08T14:34:28.000Z</time>
      </trkpt>
      <trkpt lat="43.42816" lon="6.49133">
        <ele>144</ele>
        <time>2025-10-08T14:34:40.000Z</time>
      </trkpt>
      <trkpt lat="43.42826" lon="6.49139">
        <ele>145</ele>
        <time>2025-10-08T14:34:52.000Z</time>
      </trkpt>
      <trkpt lat="43.42824" lon="6.49156">
        <ele>145</ele>
        <time>2025-10-08T14:35:01.000Z</time>
      </trkpt>
      <trkpt lat="43.42814" lon="6.4917">
        <ele>146</ele>
        <time>2025-10-08T14:35:16.000Z</time>
      </trkpt>
      <trkpt lat="43.42804" lon="6.49182">
        <ele>146</ele>
        <time>2025-10-08T14:35:28.000Z</time>
      </trkpt>
      <trkpt lat="43.42792" lon="6.49194">
        <ele>146</ele>
        <time>2025-10-08T14:35:40.000Z</time>
      </trkpt>
      <trkpt lat="43.42782" lon="6.49207">
        <ele>145</ele>
        <time>2025-10-08T14:35:52.000Z</time>
      </trkpt>
      <trkpt lat="43.42771" lon="6.49222">
        <ele>145</ele>
        <time>2025-10-08T14:36:04.000Z</time>
      </trkpt>
      <trkpt lat="43.42761" lon="6.49235">
        <ele>144</ele>
        <time>2025-10-08T14:36:16.000Z</time>
      </trkpt>
      <trkpt lat="43.42749" lon="6.49245">
        <ele>144</ele>
        <time>2025-10-08T14:36:28.000Z</time>
      </trkpt>
      <trkpt lat="43.42737" lon="6.49256">
        <ele>144</ele>
        <time>2025-10-08T14:36:40.000Z</time>
      </trkpt>
      <trkpt lat="43.42725" lon="6.49266">
        <ele>144</ele>
        <time>2025-10-08T14:36:52.000Z</time>
      </trkpt>
      <trkpt lat="43.42714" lon="6.49283">
        <ele>145</ele>
        <time>2025-10-08T14:37:07.000Z</time>
      </trkpt>
      <trkpt lat="43.42707" lon="6.49299">
        <ele>146</ele>
        <time>2025-10-08T14:37:19.000Z</time>
      </trkpt>
      <trkpt lat="43.42703" lon="6.49318">
        <ele>147</ele>
        <time>2025-10-08T14:37:31.000Z</time>
      </trkpt>
      <trkpt lat="43.4271" lon="6.49332">
        <ele>148</ele>
        <time>2025-10-08T14:43:32.000Z</time>
      </trkpt>
      <trkpt lat="43.42724" lon="6.49331">
        <ele>149</ele>
        <time>2025-10-08T14:43:47.000Z</time>
      </trkpt>
      <trkpt lat="43.42738" lon="6.49328">
        <ele>149</ele>
        <time>2025-10-08T14:43:59.000Z</time>
      </trkpt>
      <trkpt lat="43.42752" lon="6.49324">
        <ele>150</ele>
        <time>2025-10-08T14:44:14.000Z</time>
      </trkpt>
      <trkpt lat="43.42768" lon="6.49318">
        <ele>151</ele>
        <time>2025-10-08T14:44:33.000Z</time>
      </trkpt>
      <trkpt lat="43.42782" lon="6.49314">
        <ele>151</ele>
        <time>2025-10-08T14:44:45.000Z</time>
      </trkpt>
      <trkpt lat="43.42796" lon="6.4931">
        <ele>152</ele>
        <time>2025-10-08T14:44:57.000Z</time>
      </trkpt>
      <trkpt lat="43.42811" lon="6.4931">
        <ele>153</ele>
        <time>2025-10-08T14:45:09.000Z</time>
      </trkpt>
      <trkpt lat="43.42825" lon="6.49313">
        <ele>154</ele>
        <time>2025-10-08T14:45:21.000Z</time>
      </trkpt>
      <trkpt lat="43.42838" lon="6.49316">
        <ele>155</ele>
        <time>2025-10-08T14:45:33.000Z</time>
      </trkpt>
      <trkpt lat="43.42852" lon="6.49316">
        <ele>155</ele>
        <time>2025-10-08T14:45:45.000Z</time>
      </trkpt>
      <trkpt lat="43.42868" lon="6.49316">
        <ele>156</ele>
        <time>2025-10-08T14:46:00.000Z</time>
      </trkpt>
      <trkpt lat="43.42883" lon="6.49315">
        <ele>157</ele>
        <time>2025-10-08T14:46:15.000Z</time>
      </trkpt>
      <trkpt lat="43.42896" lon="6.49323">
        <ele>158</ele>
        <time>2025-10-08T14:46:27.000Z</time>
      </trkpt>
      <trkpt lat="43.42908" lon="6.49333">
        <ele>159</ele>
        <time>2025-10-08T14:46:39.000Z</time>
      </trkpt>
      <trkpt lat="43.42919" lon="6.49345">
        <ele>160</ele>
        <time>2025-10-08T14:46:54.000Z</time>
      </trkpt>
      <trkpt lat="43.42931" lon="6.49355">
        <ele>160</ele>
        <time>2025-10-08T14:47:09.000Z</time>
      </trkpt>
      <trkpt lat="43.42945" lon="6.49358">
        <ele>161</ele>
        <time>2025-10-08T14:47:21.000Z</time>
      </trkpt>
      <trkpt lat="43.42959" lon="6.49354">
        <ele>161</ele>
        <time>2025-10-08T14:47:33.000Z</time>
      </trkpt>
      <trkpt lat="43.42972" lon="6.49341">
        <ele>161</ele>
        <time>2025-10-08T14:47:48.000Z</time>
      </trkpt>
      <trkpt lat="43.42979" lon="6.49325">
        <ele>162</ele>
        <time>2025-10-08T14:48:00.000Z</time>
      </trkpt>
      <trkpt lat="43.42987" lon="6.49307">
        <ele>162</ele>
        <time>2025-10-08T14:48:12.000Z</time>
      </trkpt>
      <trkpt lat="43.42997" lon="6.49292">
        <ele>161</ele>
        <time>2025-10-08T14:48:24.000Z</time>
      </trkpt>
      <trkpt lat="43.43008" lon="6.49279">
        <ele>161</ele>
        <time>2025-10-08T14:48:36.000Z</time>
      </trkpt>
      <trkpt lat="43.43022" lon="6.49277">
        <ele>161</ele>
        <time>2025-10-08T14:48:48.000Z</time>
      </trkpt>
      <trkpt lat="43.43035" lon="6.49288">
        <ele>160</ele>
        <time>2025-10-08T14:49:00.000Z</time>
      </trkpt>
      <trkpt lat="43.4304" lon="6.49305">
        <ele>160</ele>
        <time>2025-10-08T14:49:18.000Z</time>
      </trkpt>
      <trkpt lat="43.43036" lon="6.49323">
        <ele>160</ele>
        <time>2025-10-08T14:49:30.000Z</time>
      </trkpt>
      <trkpt lat="43.43032" lon="6.49343">
        <ele>160</ele>
        <time>2025-10-08T14:49:45.000Z</time>
      </trkpt>
      <trkpt lat="43.43039" lon="6.49361">
        <ele>160</ele>
        <time>2025-10-08T14:49:57.000Z</time>
      </trkpt>
      <trkpt lat="43.43049" lon="6.49373">
        <ele>160</ele>
        <time>2025-10-08T14:50:09.000Z</time>
      </trkpt>
      <trkpt lat="43.4306" lon="6.49385">
        <ele>160</ele>
        <time>2025-10-08T14:50:21.000Z</time>
      </trkpt>
      <trkpt lat="43.43072" lon="6.49397">
        <ele>160</ele>
        <time>2025-10-08T14:50:33.000Z</time>
      </trkpt>
      <trkpt lat="43.43084" lon="6.49406">
        <ele>160</ele>
        <time>2025-10-08T14:50:45.000Z</time>
      </trkpt>
      <trkpt lat="43.43097" lon="6.49415">
        <ele>160</ele>
        <time>2025-10-08T14:50:57.000Z</time>
      </trkpt>
      <trkpt lat="43.43107" lon="6.49429">
        <ele>161</ele>
        <time>2025-10-08T14:51:09.000Z</time>
      </trkpt>
      <trkpt lat="43.43117" lon="6.49442">
        <ele>161</ele>
        <time>2025-10-08T14:51:21.000Z</time>
      </trkpt>
      <trkpt lat="43.43132" lon="6.49438">
        <ele>161</ele>
        <time>2025-10-08T14:51:36.000Z</time>
      </trkpt>
      <trkpt lat="43.43145" lon="6.4943">
        <ele>162</ele>
        <time>2025-10-08T14:51:48.000Z</time>
      </trkpt>
      <trkpt lat="43.43159" lon="6.49421">
        <ele>162</ele>
        <time>2025-10-08T14:52:00.000Z</time>
      </trkpt>
      <trkpt lat="43.43172" lon="6.49412">
        <ele>162</ele>
        <time>2025-10-08T14:52:12.000Z</time>
      </trkpt>
      <trkpt lat="43.43185" lon="6.494">
        <ele>163</ele>
        <time>2025-10-08T14:52:24.000Z</time>
      </trkpt>
      <trkpt lat="43.43196" lon="6.49385">
        <ele>164</ele>
        <time>2025-10-08T14:52:36.000Z</time>
      </trkpt>
      <trkpt lat="43.43206" lon="6.4937">
        <ele>164</ele>
        <time>2025-10-08T14:52:48.000Z</time>
      </trkpt>
      <trkpt lat="43.43219" lon="6.49358">
        <ele>165</ele>
        <time>2025-10-08T14:53:07.000Z</time>
      </trkpt>
      <trkpt lat="43.43231" lon="6.49346">
        <ele>165</ele>
        <time>2025-10-08T14:53:19.000Z</time>
      </trkpt>
      <trkpt lat="43.43242" lon="6.4933">
        <ele>166</ele>
        <time>2025-10-08T14:53:37.000Z</time>
      </trkpt>
      <trkpt lat="43.43254" lon="6.49318">
        <ele>166</ele>
        <time>2025-10-08T14:53:52.000Z</time>
      </trkpt>
      <trkpt lat="43.43268" lon="6.49322">
        <ele>167</ele>
        <time>2025-10-08T14:54:07.000Z</time>
      </trkpt>
      <trkpt lat="43.43281" lon="6.49334">
        <ele>168</ele>
        <time>2025-10-08T14:54:22.000Z</time>
      </trkpt>
      <trkpt lat="43.43292" lon="6.49345">
        <ele>169</ele>
        <time>2025-10-08T14:54:34.000Z</time>
      </trkpt>
      <trkpt lat="43.43303" lon="6.49356">
        <ele>170</ele>
        <time>2025-10-08T14:54:49.000Z</time>
      </trkpt>
      <trkpt lat="43.43315" lon="6.49367">
        <ele>170</ele>
        <time>2025-10-08T14:56:25.000Z</time>
      </trkpt>
      <trkpt lat="43.43328" lon="6.49376">
        <ele>171</ele>
        <time>2025-10-08T14:56:37.000Z</time>
      </trkpt>
      <trkpt lat="43.43342" lon="6.49384">
        <ele>171</ele>
        <time>2025-10-08T14:56:52.000Z</time>
      </trkpt>
      <trkpt lat="43.43355" lon="6.49397">
        <ele>172</ele>
        <time>2025-10-08T14:57:07.000Z</time>
      </trkpt>
      <trkpt lat="43.43364" lon="6.49413">
        <ele>172</ele>
        <time>2025-10-08T14:57:19.000Z</time>
      </trkpt>
      <trkpt lat="43.43373" lon="6.49429">
        <ele>172</ele>
        <time>2025-10-08T14:57:34.000Z</time>
      </trkpt>
      <trkpt lat="43.43378" lon="6.49447">
        <ele>172</ele>
        <time>2025-10-08T14:57:46.000Z</time>
      </trkpt>
      <trkpt lat="43.43378" lon="6.49468">
        <ele>171</ele>
        <time>2025-10-08T14:57:58.000Z</time>
      </trkpt>
      <trkpt lat="43.43378" lon="6.49489">
        <ele>171</ele>
        <time>2025-10-08T14:58:13.000Z</time>
      </trkpt>
      <trkpt lat="43.43377" lon="6.49509">
        <ele>172</ele>
        <time>2025-10-08T14:58:28.000Z</time>
      </trkpt>
      <trkpt lat="43.43377" lon="6.4953">
        <ele>172</ele>
        <time>2025-10-08T14:58:40.000Z</time>
      </trkpt>
      <trkpt lat="43.43377" lon="6.49551">
        <ele>172</ele>
        <time>2025-10-08T14:58:52.000Z</time>
      </trkpt>
      <trkpt lat="43.43376" lon="6.4957">
        <ele>172</ele>
        <time>2025-10-08T14:59:04.000Z</time>
      </trkpt>
      <trkpt lat="43.43374" lon="6.4959">
        <ele>173</ele>
        <time>2025-10-08T14:59:16.000Z</time>
      </trkpt>
      <trkpt lat="43.43373" lon="6.49611">
        <ele>174</ele>
        <time>2025-10-08T14:59:31.000Z</time>
      </trkpt>
      <trkpt lat="43.43376" lon="6.49631">
        <ele>174</ele>
        <time>2025-10-08T14:59:43.000Z</time>
      </trkpt>
      <trkpt lat="43.43375" lon="6.49652">
        <ele>174</ele>
        <time>2025-10-08T14:59:55.000Z</time>
      </trkpt>
      <trkpt lat="43.43366" lon="6.49669">
        <ele>174</ele>
        <time>2025-10-08T15:00:10.000Z</time>
      </trkpt>
      <trkpt lat="43.43355" lon="6.49684">
        <ele>174</ele>
        <time>2025-10-08T15:00:22.000Z</time>
      </trkpt>
      <trkpt lat="43.43345" lon="6.49697">
        <ele>174</ele>
        <time>2025-10-08T15:00:34.000Z</time>
      </trkpt>
      <trkpt lat="43.43334" lon="6.49709">
        <ele>174</ele>
        <time>2025-10-08T15:00:46.000Z</time>
      </trkpt>
      <trkpt lat="43.4332" lon="6.49718">
        <ele>174</ele>
        <time>2025-10-08T15:00:58.000Z</time>
      </trkpt>
      <trkpt lat="43.43307" lon="6.49729">
        <ele>174</ele>
        <time>2025-10-08T15:01:10.000Z</time>
      </trkpt>
      <trkpt lat="43.43296" lon="6.49741">
        <ele>174</ele>
        <time>2025-10-08T15:01:25.000Z</time>
      </trkpt>
      <trkpt lat="43.43287" lon="6.49757">
        <ele>175</ele>
        <time>2025-10-08T15:01:41.000Z</time>
      </trkpt>
      <trkpt lat="43.43281" lon="6.49776">
        <ele>175</ele>
        <time>2025-10-08T15:01:57.000Z</time>
      </trkpt>
      <trkpt lat="43.43277" lon="6.49797">
        <ele>176</ele>
        <time>2025-10-08T15:02:12.000Z</time>
      </trkpt>
      <trkpt lat="43.43274" lon="6.49818">
        <ele>176</ele>
        <time>2025-10-08T15:02:24.000Z</time>
      </trkpt>
      <trkpt lat="43.43272" lon="6.4984">
        <ele>176</ele>
        <time>2025-10-08T15:02:39.000Z</time>
      </trkpt>
      <trkpt lat="43.4327" lon="6.49859">
        <ele>176</ele>
        <time>2025-10-08T15:02:51.000Z</time>
      </trkpt>
      <trkpt lat="43.43267" lon="6.49878">
        <ele>175</ele>
        <time>2025-10-08T15:03:03.000Z</time>
      </trkpt>
      <trkpt lat="43.43261" lon="6.49896">
        <ele>175</ele>
        <time>2025-10-08T15:03:18.000Z</time>
      </trkpt>
      <trkpt lat="43.43255" lon="6.49915">
        <ele>174</ele>
        <time>2025-10-08T15:03:30.000Z</time>
      </trkpt>
      <trkpt lat="43.43256" lon="6.49934">
        <ele>174</ele>
        <time>2025-10-08T15:03:42.000Z</time>
      </trkpt>
      <trkpt lat="43.43264" lon="6.49949">
        <ele>173</ele>
        <time>2025-10-08T15:03:54.000Z</time>
      </trkpt>
      <trkpt lat="43.43277" lon="6.49956">
        <ele>173</ele>
        <time>2025-10-08T15:04:06.000Z</time>
      </trkpt>
      <trkpt lat="43.43292" lon="6.49958">
        <ele>172</ele>
        <time>2025-10-08T15:04:18.000Z</time>
      </trkpt>
      <trkpt lat="43.43306" lon="6.49957">
        <ele>171</ele>
        <time>2025-10-08T15:04:30.000Z</time>
      </trkpt>
      <trkpt lat="43.43322" lon="6.49954">
        <ele>170</ele>
        <time>2025-10-08T15:04:42.000Z</time>
      </trkpt>
      <trkpt lat="43.43336" lon="6.49953">
        <ele>169</ele>
        <time>2025-10-08T15:04:54.000Z</time>
      </trkpt>
      <trkpt lat="43.43351" lon="6.49952">
        <ele>168</ele>
        <time>2025-10-08T15:05:06.000Z</time>
      </trkpt>
      <trkpt lat="43.43366" lon="6.49951">
        <ele>166</ele>
        <time>2025-10-08T15:05:18.000Z</time>
      </trkpt>
      <trkpt lat="43.4338" lon="6.49954">
        <ele>165</ele>
        <time>2025-10-08T15:05:30.000Z</time>
      </trkpt>
      <trkpt lat="43.43394" lon="6.49958">
        <ele>165</ele>
        <time>2025-10-08T15:05:42.000Z</time>
      </trkpt>
      <trkpt lat="43.43408" lon="6.4996">
        <ele>164</ele>
        <time>2025-10-08T15:05:54.000Z</time>
      </trkpt>
      <trkpt lat="43.43422" lon="6.4996">
        <ele>163</ele>
        <time>2025-10-08T15:06:06.000Z</time>
      </trkpt>
      <trkpt lat="43.43437" lon="6.49965">
        <ele>163</ele>
        <time>2025-10-08T15:06:18.000Z</time>
      </trkpt>
      <trkpt lat="43.43448" lon="6.49975">
        <ele>162</ele>
        <time>2025-10-08T15:06:30.000Z</time>
      </trkpt>
      <trkpt lat="43.43461" lon="6.49984">
        <ele>161</ele>
        <time>2025-10-08T15:06:41.000Z</time>
      </trkpt>
      <trkpt lat="43.43473" lon="6.49995">
        <ele>160</ele>
        <time>2025-10-08T15:06:53.000Z</time>
      </trkpt>
      <trkpt lat="43.43484" lon="6.5001">
        <ele>159</ele>
        <time>2025-10-08T15:07:07.000Z</time>
      </trkpt>
      <trkpt lat="43.43494" lon="6.50026">
        <ele>158</ele>
        <time>2025-10-08T15:07:19.000Z</time>
      </trkpt>
      <trkpt lat="43.43506" lon="6.50036">
        <ele>157</ele>
        <time>2025-10-08T15:07:31.000Z</time>
      </trkpt>
      <trkpt lat="43.43517" lon="6.50049">
        <ele>156</ele>
        <time>2025-10-08T15:07:43.000Z</time>
      </trkpt>
      <trkpt lat="43.43523" lon="6.50067">
        <ele>155</ele>
        <time>2025-10-08T15:07:55.000Z</time>
      </trkpt>
      <trkpt lat="43.43526" lon="6.50085">
        <ele>154</ele>
        <time>2025-10-08T15:08:07.000Z</time>
      </trkpt>
      <trkpt lat="43.43534" lon="6.50102">
        <ele>153</ele>
        <time>2025-10-08T15:08:19.000Z</time>
      </trkpt>
      <trkpt lat="43.43545" lon="6.50116">
        <ele>152</ele>
        <time>2025-10-08T15:08:31.000Z</time>
      </trkpt>
      <trkpt lat="43.43554" lon="6.50131">
        <ele>151</ele>
        <time>2025-10-08T15:08:43.000Z</time>
      </trkpt>
      <trkpt lat="43.43563" lon="6.50148">
        <ele>150</ele>
        <time>2025-10-08T15:08:55.000Z</time>
      </trkpt>
      <trkpt lat="43.43568" lon="6.50167">
        <ele>149</ele>
        <time>2025-10-08T15:09:07.000Z</time>
      </trkpt>
      <trkpt lat="43.43571" lon="6.50188">
        <ele>148</ele>
        <time>2025-10-08T15:09:19.000Z</time>
      </trkpt>
      <trkpt lat="43.43571" lon="6.50208">
        <ele>147</ele>
        <time>2025-10-08T15:09:28.000Z</time>
      </trkpt>
      <trkpt lat="43.43572" lon="6.50229">
        <ele>146</ele>
        <time>2025-10-08T15:09:43.000Z</time>
      </trkpt>
      <trkpt lat="43.43578" lon="6.50248">
        <ele>145</ele>
        <time>2025-10-08T15:09:55.000Z</time>
      </trkpt>
      <trkpt lat="43.43588" lon="6.50262">
        <ele>144</ele>
        <time>2025-10-08T15:10:07.000Z</time>
      </trkpt>
      <trkpt lat="43.43599" lon="6.50276">
        <ele>143</ele>
        <time>2025-10-08T15:10:19.000Z</time>
      </trkpt>
      <trkpt lat="43.43608" lon="6.50293">
        <ele>141</ele>
        <time>2025-10-08T15:10:31.000Z</time>
      </trkpt>
      <trkpt lat="43.43612" lon="6.50312">
        <ele>140</ele>
        <time>2025-10-08T15:10:43.000Z</time>
      </trkpt>
      <trkpt lat="43.43617" lon="6.50332">
        <ele>139</ele>
        <time>2025-10-08T15:10:55.000Z</time>
      </trkpt>
      <trkpt lat="43.43622" lon="6.50351">
        <ele>138</ele>
        <time>2025-10-08T15:11:07.000Z</time>
      </trkpt>
      <trkpt lat="43.4362" lon="6.50372">
        <ele>137</ele>
        <time>2025-10-08T15:11:19.000Z</time>
      </trkpt>
      <trkpt lat="43.43623" lon="6.50393">
        <ele>136</ele>
        <time>2025-10-08T15:11:31.000Z</time>
      </trkpt>
      <trkpt lat="43.43631" lon="6.50411">
        <ele>135</ele>
        <time>2025-10-08T15:11:43.000Z</time>
      </trkpt>
      <trkpt lat="43.43635" lon="6.50431">
        <ele>134</ele>
        <time>2025-10-08T15:11:55.000Z</time>
      </trkpt>
      <trkpt lat="43.43642" lon="6.5045">
        <ele>133</ele>
        <time>2025-10-08T15:12:07.000Z</time>
      </trkpt>
      <trkpt lat="43.43651" lon="6.50466">
        <ele>132</ele>
        <time>2025-10-08T15:12:19.000Z</time>
      </trkpt>
      <trkpt lat="43.43655" lon="6.50484">
        <ele>131</ele>
        <time>2025-10-08T15:12:31.000Z</time>
      </trkpt>
      <trkpt lat="43.4366" lon="6.50504">
        <ele>129</ele>
        <time>2025-10-08T15:12:43.000Z</time>
      </trkpt>
      <trkpt lat="43.43662" lon="6.50524">
        <ele>128</ele>
        <time>2025-10-08T15:12:55.000Z</time>
      </trkpt>
      <trkpt lat="43.43661" lon="6.50545">
        <ele>127</ele>
        <time>2025-10-08T15:13:07.000Z</time>
      </trkpt>
      <trkpt lat="43.4366" lon="6.50567">
        <ele>125</ele>
        <time>2025-10-08T15:13:19.000Z</time>
      </trkpt>
      <trkpt lat="43.43658" lon="6.50587">
        <ele>124</ele>
        <time>2025-10-08T15:13:31.000Z</time>
      </trkpt>
      <trkpt lat="43.43657" lon="6.50607">
        <ele>123</ele>
        <time>2025-10-08T15:13:43.000Z</time>
      </trkpt>
      <trkpt lat="43.43654" lon="6.50626">
        <ele>122</ele>
        <time>2025-10-08T15:13:55.000Z</time>
      </trkpt>
      <trkpt lat="43.43651" lon="6.50644">
        <ele>120</ele>
        <time>2025-10-08T15:14:04.000Z</time>
      </trkpt>
      <trkpt lat="43.43646" lon="6.50665">
        <ele>119</ele>
        <time>2025-10-08T15:14:19.000Z</time>
      </trkpt>
      <trkpt lat="43.43638" lon="6.50681">
        <ele>118</ele>
        <time>2025-10-08T15:14:31.000Z</time>
      </trkpt>
      <trkpt lat="43.43628" lon="6.50694">
        <ele>117</ele>
        <time>2025-10-08T15:14:43.000Z</time>
      </trkpt>
      <trkpt lat="43.43619" lon="6.50711">
        <ele>116</ele>
        <time>2025-10-08T15:14:55.000Z</time>
      </trkpt>
      <trkpt lat="43.43624" lon="6.5073">
        <ele>115</ele>
        <time>2025-10-08T15:15:10.000Z</time>
      </trkpt>
      <trkpt lat="43.43633" lon="6.50747">
        <ele>114</ele>
        <time>2025-10-08T15:15:22.000Z</time>
      </trkpt>
      <trkpt lat="43.43637" lon="6.50768">
        <ele>113</ele>
        <time>2025-10-08T15:15:34.000Z</time>
      </trkpt>
      <trkpt lat="43.43637" lon="6.50789">
        <ele>112</ele>
        <time>2025-10-08T15:15:49.000Z</time>
      </trkpt>
      <trkpt lat="43.43629" lon="6.50805">
        <ele>111</ele>
        <time>2025-10-08T15:16:01.000Z</time>
      </trkpt>
      <trkpt lat="43.43625" lon="6.50823">
        <ele>110</ele>
        <time>2025-10-08T15:16:16.000Z</time>
      </trkpt>
      <trkpt lat="43.43632" lon="6.50839">
        <ele>109</ele>
        <time>2025-10-08T15:16:28.000Z</time>
      </trkpt>
      <trkpt lat="43.4364" lon="6.50854">
        <ele>108</ele>
        <time>2025-10-08T15:16:40.000Z</time>
      </trkpt>
      <trkpt lat="43.43644" lon="6.50873">
        <ele>107</ele>
        <time>2025-10-08T15:16:52.000Z</time>
      </trkpt>
      <trkpt lat="43.43641" lon="6.50894">
        <ele>106</ele>
        <time>2025-10-08T15:17:07.000Z</time>
      </trkpt>
      <trkpt lat="43.43638" lon="6.50914">
        <ele>105</ele>
        <time>2025-10-08T15:17:19.000Z</time>
      </trkpt>
      <trkpt lat="43.43641" lon="6.50933">
        <ele>104</ele>
        <time>2025-10-08T15:17:31.000Z</time>
      </trkpt>
      <trkpt lat="43.43646" lon="6.5095">
        <ele>103</ele>
        <time>2025-10-08T15:17:43.000Z</time>
      </trkpt>
      <trkpt lat="43.43649" lon="6.50969">
        <ele>102</ele>
        <time>2025-10-08T15:17:55.000Z</time>
      </trkpt>
      <trkpt lat="43.43654" lon="6.50988">
        <ele>100</ele>
        <time>2025-10-08T15:18:07.000Z</time>
      </trkpt>
      <trkpt lat="43.43661" lon="6.51005">
        <ele>99</ele>
        <time>2025-10-08T15:18:19.000Z</time>
      </trkpt>
      <trkpt lat="43.43665" lon="6.51023">
        <ele>97</ele>
        <time>2025-10-08T15:18:31.000Z</time>
      </trkpt>
      <trkpt lat="43.43658" lon="6.51036">
        <ele>96</ele>
        <time>2025-10-08T15:18:43.000Z</time>
      </trkpt>
      <trkpt lat="43.43645" lon="6.51037">
        <ele>94</ele>
        <time>2025-10-08T15:18:55.000Z</time>
      </trkpt>
      <trkpt lat="43.43631" lon="6.51034">
        <ele>93</ele>
        <time>2025-10-08T15:19:07.000Z</time>
      </trkpt>
      <trkpt lat="43.43618" lon="6.51027">
        <ele>92</ele>
        <time>2025-10-08T15:19:19.000Z</time>
      </trkpt>
      <trkpt lat="43.43603" lon="6.5102">
        <ele>91</ele>
        <time>2025-10-08T15:19:31.000Z</time>
      </trkpt>
      <trkpt lat="43.43587" lon="6.51017">
        <ele>91</ele>
        <time>2025-10-08T15:19:49.000Z</time>
      </trkpt>
      <trkpt lat="43.43574" lon="6.51021">
        <ele>91</ele>
        <time>2025-10-08T15:20:04.000Z</time>
      </trkpt>
      <trkpt lat="43.43561" lon="6.51031">
        <ele>91</ele>
        <time>2025-10-08T15:20:16.000Z</time>
      </trkpt>
      <trkpt lat="43.43549" lon="6.51042">
        <ele>90</ele>
        <time>2025-10-08T15:20:25.000Z</time>
      </trkpt>
      <trkpt lat="43.43537" lon="6.51053">
        <ele>89</ele>
        <time>2025-10-08T15:20:37.000Z</time>
      </trkpt>
      <trkpt lat="43.43524" lon="6.51064">
        <ele>90</ele>
        <time>2025-10-08T15:20:52.000Z</time>
      </trkpt>
      <trkpt lat="43.43511" lon="6.51074">
        <ele>87</ele>
        <time>2025-10-08T15:21:07.000Z</time>
      </trkpt>
      <trkpt lat="43.43498" lon="6.51078">
        <ele>87</ele>
        <time>2025-10-08T15:21:19.000Z</time>
      </trkpt>
      <trkpt lat="43.43482" lon="6.51076">
        <ele>86</ele>
        <time>2025-10-08T15:21:31.000Z</time>
      </trkpt>
    </trkseg>
  </trk>
</gpx>